Time;durP1;ratioP1;P1;durP2;ratioP2;P2;SDS_P1;SDS_P2;PMS_P1;PMS_P2;Temp;Humidity;BMP_temperature;BMP_pressure;BME280_temperature;BME280_humidity;BME280_pressure;Samples;Min_cycle;Max_cycle;Signal;HPM_P1;HPM_P2
2021/09/09 00:01:00;;;;;;;16.02;14.02;;;;;;;;;;5033946;28;20068;-82
2021/09/09 00:03:25;;;;;;;20.23;14.57;;;;;;;;;;5033812;28;20044;-81
2021/09/09 00:05:50;;;;;;;17.00;14.57;;;;;;;;;;5031431;28;20025;-82
2021/09/09 00:08:16;;;;;;;20.10;17.00;;;;;;;;;;5032619;28;20073;-82
2021/09/09 00:10:41;;;;;;;18.83;16.48;;;;;;;;;;5031681;28;20025;-83
2021/09/09 00:13:06;;;;;;;22.85;18.50;;;;;;;;;;5031178;28;20092;-82
2021/09/09 00:15:32;;;;;;;18.05;15.25;;;;;;;;;;5031261;28;20030;-82
2021/09/09 00:17:57;;;;;;;18.42;14.57;;;;;;;;;;5030832;28;20886;-81
2021/09/09 00:20:22;;;;;;;20.75;15.35;;;;;;;;;;5031015;28;20033;-82
2021/09/09 00:22:48;;;;;;;19.02;16.85;;;;;;;;;;5032925;28;20021;-83
2021/09/09 00:25:13;;;;;;;18.85;16.77;;;;;;;;;;5033705;28;20408;-83
2021/09/09 00:27:38;;;;;;;19.17;16.95;;;;;;;;;;5034513;28;20449;-83
2021/09/09 00:30:04;;;;;;;19.33;16.55;;;;;;;;;;5035196;28;20022;-82
2021/09/09 00:32:29;;;;;;;18.67;16.08;;;;;;;;;;5033880;28;20082;-82
2021/09/09 00:34:55;;;;;;;19.20;16.73;;;;;;;;;;5033237;28;20025;-83
2021/09/09 00:37:20;;;;;;;15.43;13.27;;;;;;;;;;5030511;28;20032;-82
2021/09/09 00:39:45;;;;;;;19.00;14.23;;;;;;;;;;5031462;28;20025;-82
2021/09/09 00:42:10;;;;;;;21.10;16.63;;;;;;;;;;5031672;28;20025;-82
2021/09/09 00:44:36;;;;;;;23.27;17.73;;;;;;;;;;5031094;28;20037;-82
2021/09/09 00:47:03;;;;;;;21.63;16.67;;;;;;;;;;5030273;28;20503;-82
2021/09/09 00:49:28;;;;;;;19.05;16.08;;;;;;;;;;5030319;28;20032;-82
2021/09/09 00:51:53;;;;;;;19.27;15.98;;;;;;;;;;5030206;28;20481;-82
2021/09/09 00:54:19;;;;;;;19.30;15.90;;;;;;;;;;5032441;28;20025;-83
2021/09/09 00:56:44;;;;;;;20.75;16.85;;;;;;;;;;5035688;28;20306;-83
2021/09/09 00:59:09;;;;;;;17.55;14.23;;;;;;;;;;5034375;28;20021;-82
2021/09/09 01:01:34;;;;;;;20.43;16.53;;;;;;;;;;5033554;28;20072;-82
2021/09/09 01:04:00;;;;;;;23.70;14.80;;;;;;;;;;5032665;28;20787;-82
2021/09/09 01:06:25;;;;;;;21.90;17.03;;;;;;;;;;5031927;28;20103;-83
2021/09/09 01:08:50;;;;;;;17.67;15.05;;;;;;;;;;5031401;28;20048;-82
2021/09/09 01:11:15;;;;;;;20.77;15.90;;;;;;;;;;5030935;28;20111;-81
2021/09/09 01:13:50;;;;;;;15.23;13.37;;;;;;;;;;5030262;28;20262;-82
2021/09/09 01:16:15;;;;;;;18.35;15.77;;;;;;;;;;5030115;28;20376;-82
2021/09/09 01:18:42;;;;;;;18.35;15.52;;;;;;;;;;5031432;28;20112;-83
2021/09/09 01:21:07;;;;;;;20.50;16.50;;;;;;;;;;5033278;28;20441;-82
2021/09/09 01:23:33;;;;;;;17.35;14.10;;;;;;;;;;5034087;28;20343;-83
2021/09/09 01:25:59;;;;;;;20.98;16.63;;;;;;;;;;5032594;28;20444;-82
2021/09/09 01:28:24;;;;;;;24.83;17.53;;;;;;;;;;5031419;28;20017;-82
2021/09/09 01:30:49;;;;;;;17.93;15.00;;;;;;;;;;5030497;28;20048;-82
2021/09/09 01:33:14;;;;;;;20.97;17.97;;;;;;;;;;5031607;28;20068;-82
2021/09/09 01:35:39;;;;;;;20.48;16.70;;;;;;;;;;5030655;28;20084;-82
2021/09/09 01:38:16;;;;;;;24.70;19.67;;;;;;;;;;5029104;28;20429;-82
2021/09/09 01:40:42;;;;;;;21.88;19.40;;;;;;;;;;5030627;28;20026;-82
2021/09/09 01:43:07;;;;;;;18.67;15.13;;;;;;;;;;5028877;28;20440;-82
2021/09/09 01:45:32;;;;;;;17.47;15.70;;;;;;;;;;5028312;28;20063;-82
2021/09/09 01:47:59;;;;;;;20.87;18.63;;;;;;;;;;5031027;28;20312;-82
2021/09/09 01:50:25;;;;;;;24.70;17.40;;;;;;;;;;5034298;28;20033;-82
2021/09/09 01:52:50;;;;;;;21.20;15.77;;;;;;;;;;5033870;28;20446;-82
2021/09/09 01:55:16;;;;;;;26.43;20.87;;;;;;;;;;5031200;28;20124;-82
2021/09/09 01:57:41;;;;;;;18.47;16.13;;;;;;;;;;5031477;28;20260;-82
2021/09/09 02:00:07;;;;;;;25.15;22.50;;;;;;;;;;5032428;28;20615;-83
2021/09/09 02:02:32;;;;;;;26.77;19.13;;;;;;;;;;5030089;28;20786;-82
2021/09/09 02:04:57;;;;;;;23.73;18.73;;;;;;;;;;5030776;28;20029;-82
2021/09/09 02:07:22;;;;;;;24.20;20.20;;;;;;;;;;5031266;28;20427;-82
2021/09/09 02:09:48;;;;;;;21.33;18.97;;;;;;;;;;5034050;28;20255;-82
2021/09/09 02:12:13;;;;;;;29.47;23.63;;;;;;;;;;5033834;28;20268;-82
2021/09/09 02:14:38;;;;;;;21.40;19.07;;;;;;;;;;5033482;28;20469;-82
2021/09/09 02:17:03;;;;;;;22.83;19.00;;;;;;;;;;5032624;28;20049;-83
2021/09/09 02:19:28;;;;;;;22.88;19.38;;;;;;;;;;5038301;28;20060;-82
2021/09/09 02:21:53;;;;;;;21.47;18.70;;;;;;;;;;5036813;28;20053;-82
2021/09/09 02:24:19;;;;;;;28.53;23.53;;;;;;;;;;5036329;28;20268;-81
2021/09/09 02:26:44;;;;;;;27.63;23.80;;;;;;;;;;5035894;28;20104;-82
2021/09/09 02:29:09;;;;;;;37.20;29.23;;;;;;;;;;5035215;28;20335;-82
2021/09/09 02:31:34;;;;;;;33.00;26.87;;;;;;;;;;5034569;28;20040;-82
2021/09/09 02:33:59;;;;;;;34.40;27.10;;;;;;;;;;5035374;28;20086;-83
2021/09/09 02:36:25;;;;;;;36.17;30.30;;;;;;;;;;5034799;28;20030;-82
2021/09/09 02:38:50;;;;;;;29.63;26.43;;;;;;;;;;5033759;28;20044;-82
2021/09/09 02:41:15;;;;;;;38.20;30.93;;;;;;;;;;5033734;28;20256;-82
2021/09/09 02:43:40;;;;;;;44.27;32.83;;;;;;;;;;5031490;28;20267;-82
2021/09/09 02:46:05;;;;;;;40.22;32.15;;;;;;;;;;5033148;28;20263;-82
2021/09/09 02:48:31;;;;;;;32.73;29.10;;;;;;;;;;5038653;28;20057;-82
2021/09/09 02:50:56;;;;;;;46.53;36.83;;;;;;;;;;5036841;28;20028;-83
2021/09/09 02:53:21;;;;;;;58.67;42.67;;;;;;;;;;5035962;28;20028;-82
2021/09/09 02:55:46;;;;;;;39.37;31.77;;;;;;;;;;5034660;28;20288;-83
2021/09/09 02:58:11;;;;;;;46.40;37.33;;;;;;;;;;5033088;28;20310;-82
2021/09/09 03:00:37;;;;;;;39.53;33.35;;;;;;;;;;5034187;28;20056;-82
2021/09/09 03:03:02;;;;;;;33.73;28.47;;;;;;;;;;5031903;28;20527;-82
2021/09/09 03:05:27;;;;;;;40.53;32.63;;;;;;;;;;5033083;28;20264;-82
2021/09/09 03:07:52;;;;;;;35.63;28.13;;;;;;;;;;5033893;28;20264;-82
2021/09/09 03:10:17;;;;;;;34.47;27.67;;;;;;;;;;5032435;28;20025;-82
2021/09/09 03:12:43;;;;;;;33.93;27.90;;;;;;;;;;5033602;28;20263;-81
2021/09/09 03:15:08;;;;;;;29.35;24.75;;;;;;;;;;5033293;28;20616;-82
2021/09/09 03:17:33;;;;;;;32.35;28.83;;;;;;;;;;5032801;28;20045;-83
2021/09/09 03:19:59;;;;;;;42.10;32.33;;;;;;;;;;5035109;28;20489;-82
2021/09/09 03:22:24;;;;;;;35.20;30.27;;;;;;;;;;5035660;28;20028;-82
2021/09/09 03:24:49;;;;;;;36.75;29.60;;;;;;;;;;5033821;28;20107;-82
2021/09/09 03:27:14;;;;;;;30.97;27.60;;;;;;;;;;5034804;28;20046;-83
2021/09/09 03:29:39;;;;;;;34.20;28.38;;;;;;;;;;5033827;28;20033;-82
2021/09/09 03:32:05;;;;;;;30.83;27.37;;;;;;;;;;5031666;28;20478;-83
2021/09/09 03:34:30;;;;;;;31.27;27.75;;;;;;;;;;5032779;28;20263;-82
2021/09/09 03:36:55;;;;;;;40.57;32.77;;;;;;;;;;5030575;28;20040;-82
2021/09/09 03:39:20;;;;;;;31.58;24.67;;;;;;;;;;5031923;28;20267;-82
2021/09/09 03:41:45;;;;;;;30.03;24.37;;;;;;;;;;5030754;28;20025;-82
2021/09/09 03:44:11;;;;;;;36.63;27.80;;;;;;;;;;5031891;28;20013;-82
2021/09/09 03:46:36;;;;;;;31.83;27.42;;;;;;;;;;5033888;28;20060;-82
2021/09/09 03:49:01;;;;;;;40.28;34.35;;;;;;;;;;5036085;28;20029;-82
2021/09/09 03:51:26;;;;;;;34.63;28.42;;;;;;;;;;5033214;28;20120;-82
2021/09/09 03:53:52;;;;;;;38.07;32.07;;;;;;;;;;5033995;28;20104;-82
2021/09/09 03:56:17;;;;;;;45.03;37.73;;;;;;;;;;5032024;28;20357;-82
2021/09/09 03:58:42;;;;;;;36.92;31.55;;;;;;;;;;5032813;28;20623;-82
2021/09/09 04:01:07;;;;;;;50.03;39.50;;;;;;;;;;5030534;28;20017;-82
2021/09/09 04:03:32;;;;;;;43.13;32.67;;;;;;;;;;5030141;28;20937;-82
2021/09/09 04:05:58;;;;;;;29.90;26.77;;;;;;;;;;5031456;28;20271;-82
2021/09/09 04:08:23;;;;;;;42.83;31.43;;;;;;;;;;5029701;28;20264;-82
2021/09/09 04:10:48;;;;;;;40.57;34.33;;;;;;;;;;5033356;28;20385;-83
2021/09/09 04:13:13;;;;;;;40.03;33.60;;;;;;;;;;5036459;28;20025;-83
2021/09/09 04:15:39;;;;;;;38.40;31.67;;;;;;;;;;5033428;28;20036;-82
2021/09/09 04:18:04;;;;;;;42.13;34.72;;;;;;;;;;5033916;28;20617;-82
2021/09/09 04:20:30;;;;;;;37.15;32.65;;;;;;;;;;5033064;28;20029;-82
2021/09/09 04:22:55;;;;;;;39.80;32.50;;;;;;;;;;5032153;28;20021;-81
2021/09/09 04:25:20;;;;;;;50.42;37.47;;;;;;;;;;5029968;28;20051;-82
2021/09/09 04:27:45;;;;;;;33.93;29.17;;;;;;;;;;5029955;28;20021;-81
2021/09/09 04:30:10;;;;;;;38.20;33.43;;;;;;;;;;5030691;28;20025;-82
2021/09/09 04:32:36;;;;;;;32.53;28.58;;;;;;;;;;5030887;28;20121;-81
2021/09/09 04:35:01;;;;;;;39.93;33.87;;;;;;;;;;5031266;28;20068;-82
2021/09/09 04:37:26;;;;;;;32.72;27.67;;;;;;;;;;5030405;28;20329;-81
2021/09/09 04:39:51;;;;;;;32.63;28.97;;;;;;;;;;5030387;28;20056;-81
2021/09/09 04:42:17;;;;;;;33.43;28.33;;;;;;;;;;5031290;28;20018;-82
2021/09/09 04:44:42;;;;;;;31.73;27.48;;;;;;;;;;5034857;28;20271;-82
2021/09/09 04:47:07;;;;;;;33.80;29.10;;;;;;;;;;5034365;28;20030;-82
2021/09/09 04:49:32;;;;;;;39.60;29.23;;;;;;;;;;5034056;28;20267;-82
2021/09/09 04:51:57;;;;;;;37.88;32.00;;;;;;;;;;5031614;28;20770;-82
2021/09/09 04:54:23;;;;;;;41.13;33.45;;;;;;;;;;5031167;28;20029;-82
2021/09/09 04:56:48;;;;;;;34.40;30.35;;;;;;;;;;5029793;28;20025;-82
2021/09/09 04:59:13;;;;;;;46.77;34.13;;;;;;;;;;5031080;28;20447;-82
2021/09/09 05:01:39;;;;;;;44.45;36.08;;;;;;;;;;5031075;28;20415;-82
2021/09/09 05:04:04;;;;;;;34.92;30.33;;;;;;;;;;5030461;28;20060;-81
2021/09/09 05:06:29;;;;;;;38.83;31.77;;;;;;;;;;5030154;28;20025;-82
2021/09/09 05:08:54;;;;;;;50.53;39.03;;;;;;;;;;5033527;28;20493;-82
2021/09/09 05:11:20;;;;;;;33.90;30.23;;;;;;;;;;5035060;28;20025;-83
2021/09/09 05:13:45;;;;;;;37.45;30.27;;;;;;;;;;5034098;28;20410;-82
2021/09/09 05:16:10;;;;;;;34.97;31.07;;;;;;;;;;5033762;28;20064;-82
2021/09/09 05:18:36;;;;;;;45.92;37.03;;;;;;;;;;5032150;28;20307;-82
2021/09/09 05:21:01;;;;;;;40.88;32.45;;;;;;;;;;5031575;28;20025;-82
2021/09/09 05:23:26;;;;;;;51.20;40.92;;;;;;;;;;5030808;28;20021;-82
2021/09/09 05:25:52;;;;;;;56.53;43.27;;;;;;;;;;5028840;28;20026;-82
2021/09/09 05:28:17;;;;;;;41.45;34.72;;;;;;;;;;5030670;28;20568;-82
2021/09/09 05:30:42;;;;;;;42.85;34.55;;;;;;;;;;5028682;28;20082;-82
2021/09/09 05:33:07;;;;;;;53.38;38.35;;;;;;;;;;5028799;28;20030;-82
2021/09/09 05:35:33;;;;;;;41.47;35.63;;;;;;;;;;5030269;28;20036;-82
2021/09/09 05:37:58;;;;;;;40.63;35.22;;;;;;;;;;5028476;28;20244;-82
2021/09/09 05:40:23;;;;;;;43.63;37.05;;;;;;;;;;5032289;28;20021;-83
2021/09/09 05:42:49;;;;;;;51.28;40.50;;;;;;;;;;5033823;28;20022;-82
2021/09/09 05:45:14;;;;;;;57.53;42.67;;;;;;;;;;5036770;28;20103;-83
2021/09/09 05:47:39;;;;;;;66.20;45.30;;;;;;;;;;5036202;28;20033;-82
2021/09/09 05:50:05;;;;;;;49.10;38.72;;;;;;;;;;5034054;28;20037;-82
2021/09/09 05:52:30;;;;;;;59.75;42.85;;;;;;;;;;5035032;28;20057;-82
2021/09/09 05:54:56;;;;;;;69.88;48.97;;;;;;;;;;5033677;28;20484;-82
2021/09/09 05:57:21;;;;;;;50.55;39.30;;;;;;;;;;5034980;28;20021;-82
2021/09/09 05:59:46;;;;;;;61.57;44.87;;;;;;;;;;5028485;28;20026;-83
2021/09/09 06:02:15;;;;;;;83.80;55.73;;;;;;;;;;5031189;28;20016;-82
2021/09/09 06:04:41;;;;;;;56.80;43.53;;;;;;;;;;5034889;28;20032;-83
2021/09/09 06:07:06;;;;;;;50.80;41.40;;;;;;;;;;5041644;28;20029;-83
2021/09/09 06:09:32;;;;;;;69.97;51.00;;;;;;;;;;5045314;28;20044;-83
2021/09/09 06:11:57;;;;;;;72.07;49.70;;;;;;;;;;5032304;28;20117;-82
2021/09/09 06:14:22;;;;;;;58.60;40.88;;;;;;;;;;5031839;28;20271;-82
2021/09/09 06:16:48;;;;;;;82.63;48.20;;;;;;;;;;5031048;28;20045;-82
2021/09/09 06:19:13;;;;;;;53.08;38.33;;;;;;;;;;5031699;28;20056;-82
2021/09/09 06:21:38;;;;;;;54.67;37.47;;;;;;;;;;5030832;28;20023;-82
2021/09/09 06:24:06;;;;;;;71.97;44.53;;;;;;;;;;5047306;28;20465;-83
2021/09/09 06:26:32;;;;;;;58.33;34.92;;;;;;;;;;5037656;28;20298;-82
2021/09/09 06:28:57;;;;;;;78.00;46.95;;;;;;;;;;5039394;28;20426;-82
2021/09/09 06:31:22;;;;;;;58.47;38.13;;;;;;;;;;5032620;28;20083;-83
2021/09/09 06:33:47;;;;;;;68.07;45.78;;;;;;;;;;5036168;28;20481;-83
2021/09/09 06:36:12;;;;;;;69.37;48.07;;;;;;;;;;5038872;28;20098;-83
2021/09/09 06:38:38;;;;;;;53.83;41.77;;;;;;;;;;5049164;28;20033;-85
2021/09/09 06:41:03;;;;;;;55.28;41.80;;;;;;;;;;5048272;28;20024;-85
2021/09/09 06:43:28;;;;;;;47.63;38.77;;;;;;;;;;5056626;28;20021;-85
2021/09/09 06:45:53;;;;;;;77.70;54.38;;;;;;;;;;5054184;28;20407;-85
2021/09/09 06:48:19;;;;;;;62.70;47.27;;;;;;;;;;5035738;28;20021;-85
2021/09/09 06:50:44;;;;;;;51.97;41.97;;;;;;;;;;5034475;28;20256;-85
2021/09/09 06:53:09;;;;;;;51.80;42.03;;;;;;;;;;5045559;28;20333;-85
2021/09/09 06:55:34;;;;;;;62.83;46.93;;;;;;;;;;5039231;28;20025;-84
2021/09/09 06:57:59;;;;;;;58.57;43.53;;;;;;;;;;5035613;28;20288;-84
2021/09/09 07:00:25;;;;;;;64.40;50.13;;;;;;;;;;5034082;28;20260;-84
2021/09/09 07:02:50;;;;;;;62.92;46.42;;;;;;;;;;5033596;28;20253;-85
2021/09/09 07:05:15;;;;;;;53.45;42.92;;;;;;;;;;5049091;28;20078;-85
2021/09/09 07:07:41;;;;;;;60.43;47.30;;;;;;;;;;5041203;28;20128;-85
2021/09/09 07:10:07;;;;;;;51.13;40.70;;;;;;;;;;5052069;28;20296;-85
2021/09/09 07:12:32;;;;;;;68.60;47.60;;;;;;;;;;5043153;28;20033;-85
2021/09/09 07:14:57;;;;;;;61.63;47.10;;;;;;;;;;5054932;28;20025;-82
2021/09/09 07:17:22;;;;;;;47.63;38.83;;;;;;;;;;5038747;28;20304;-82
2021/09/09 07:19:47;;;;;;;58.63;41.50;;;;;;;;;;5046075;28;20044;-82
2021/09/09 07:22:13;;;;;;;51.80;41.80;;;;;;;;;;5034670;28;20294;-82
2021/09/09 07:24:38;;;;;;;45.80;39.23;;;;;;;;;;5051422;28;20062;-83
2021/09/09 07:27:03;;;;;;;46.73;40.50;;;;;;;;;;5039287;28;20776;-82
2021/09/09 07:29:28;;;;;;;52.78;42.97;;;;;;;;;;5029807;28;20744;-83
2021/09/09 07:31:54;;;;;;;55.43;43.47;;;;;;;;;;5045869;28;20029;-81
2021/09/09 07:34:19;;;;;;;56.83;45.97;;;;;;;;;;5032034;28;20031;-81
2021/09/09 07:36:44;;;;;;;49.17;38.55;;;;;;;;;;5047019;28;20025;-81
2021/09/09 07:39:09;;;;;;;43.80;36.08;;;;;;;;;;5037612;28;20022;-81
2021/09/09 07:41:35;;;;;;;43.45;36.78;;;;;;;;;;5047086;28;20048;-81
2021/09/09 07:44:01;;;;;;;39.47;33.60;;;;;;;;;;5032287;28;20053;-82
2021/09/09 07:46:27;;;;;;;42.55;32.22;;;;;;;;;;5037578;28;20033;-81
2021/09/09 07:48:52;;;;;;;36.60;31.42;;;;;;;;;;5041862;28;20029;-82
2021/09/09 07:51:19;;;;;;;37.42;29.60;;;;;;;;;;5045492;28;20048;-80
2021/09/09 07:53:46;;;;;;;35.47;30.50;;;;;;;;;;5034997;28;20079;-80
2021/09/09 07:56:12;;;;;;;39.58;29.00;;;;;;;;;;5032964;28;20067;-81
2021/09/09 07:58:37;;;;;;;43.20;27.27;;;;;;;;;;5041972;28;20017;-80
2021/09/09 08:01:02;;;;;;;32.08;26.65;;;;;;;;;;5040417;28;20314;-81
2021/09/09 08:03:27;;;;;;;37.47;27.70;;;;;;;;;;5034589;28;20025;-81
2021/09/09 08:05:53;;;;;;;31.07;27.07;;;;;;;;;;5030013;28;20021;-81
2021/09/09 08:08:19;;;;;;;36.65;28.02;;;;;;;;;;5045172;28;20025;-81
2021/09/09 08:10:44;;;;;;;39.13;26.23;;;;;;;;;;5038598;28;20032;-80
2021/09/09 08:13:09;;;;;;;26.40;23.07;;;;;;;;;;5035132;28;20256;-81
2021/09/09 08:15:37;;;;;;;25.63;22.53;;;;;;;;;;5044115;28;20089;-81
2021/09/09 08:18:02;;;;;;;35.55;24.52;;;;;;;;;;5035022;28;20056;-81
2021/09/09 08:20:27;;;;;;;28.35;25.17;;;;;;;;;;5033664;28;20033;-81
2021/09/09 08:22:52;;;;;;;26.90;24.00;;;;;;;;;;5029133;28;20022;-81
2021/09/09 08:25:17;;;;;;;28.60;21.83;;;;;;;;;;5044078;28;20252;-81
2021/09/09 08:27:43;;;;;;;32.10;22.97;;;;;;;;;;5033161;28;20552;-81
2021/09/09 08:30:08;;;;;;;23.70;20.40;;;;;;;;;;5043493;28;20275;-81
2021/09/09 08:32:33;;;;;;;23.80;21.08;;;;;;;;;;5035753;28;20274;-81
2021/09/09 08:34:59;;;;;;;26.98;21.35;;;;;;;;;;5038287;28;20041;-81
2021/09/09 08:37:24;;;;;;;38.63;23.05;;;;;;;;;;5040771;28;20025;-81
2021/09/09 08:39:50;;;;;;;33.97;20.50;;;;;;;;;;5034617;28;20766;-83
2021/09/09 08:42:16;;;;;;;26.98;20.17;;;;;;;;;;5028979;28;20084;-83
2021/09/09 08:44:41;;;;;;;25.00;20.08;;;;;;;;;;5038272;28;20020;-82
2021/09/09 08:47:10;;;;;;;24.25;19.42;;;;;;;;;;5036087;28;20029;-83
2021/09/09 08:49:35;;;;;;;20.83;18.33;;;;;;;;;;5047028;28;20028;-83
2021/09/09 08:52:03;;;;;;;22.97;19.77;;;;;;;;;;5036718;28;20033;-83
2021/09/09 08:54:29;;;;;;;22.63;19.45;;;;;;;;;;5047433;28;20423;-83
2021/09/09 08:56:54;;;;;;;24.08;21.45;;;;;;;;;;5040623;28;20030;-83
2021/09/09 08:59:19;;;;;;;23.30;20.73;;;;;;;;;;5043201;28;20079;-82
2021/09/09 09:02:04;;;;;;;25.27;21.13;;;;;;;;;;5031135;28;20025;-82
2021/09/09 09:04:29;;;;;;;22.73;20.38;;;;;;;;;;5041078;28;20032;-82
2021/09/09 09:06:55;;;;;;;23.13;20.63;;;;;;;;;;5035211;28;20128;-83
2021/09/09 09:09:21;;;;;;;25.42;21.88;;;;;;;;;;5036441;28;20446;-83
2021/09/09 09:11:49;;;;;;;22.50;20.15;;;;;;;;;;5045971;28;20036;-83
2021/09/09 09:14:18;;;;;;;23.83;19.23;;;;;;;;;;5037796;28;20095;-83
2021/09/09 09:16:45;;;;;;;22.58;20.10;;;;;;;;;;5053057;28;20031;-83
2021/09/09 09:19:11;;;;;;;23.42;18.95;;;;;;;;;;5039537;28;20029;-83
2021/09/09 09:21:41;;;;;;;20.63;17.98;;;;;;;;;;5046269;28;20037;-82
2021/09/09 09:24:06;;;;;;;23.08;17.75;;;;;;;;;;5030027;28;20025;-83
2021/09/09 09:26:31;;;;;;;23.27;18.53;;;;;;;;;;5030755;28;20129;-82
2021/09/09 09:28:58;;;;;;;24.27;18.90;;;;;;;;;;5039345;28;20029;-83
2021/09/09 09:31:30;;;;;;;21.58;18.83;;;;;;;;;;5034700;28;20627;-82
2021/09/09 09:33:57;;;;;;;21.00;18.70;;;;;;;;;;5046338;28;20082;-82
2021/09/09 09:36:31;;;;;;;27.55;17.73;;;;;;;;;;5042952;28;20041;-82
2021/09/09 09:39:11;;;;;;;19.25;15.70;;;;;;;;;;5038303;28;20021;-82
2021/09/09 09:41:40;;;;;;;16.42;14.60;;;;;;;;;;5034511;28;20092;-83
2021/09/09 09:44:07;;;;;;;16.58;14.93;;;;;;;;;;5049342;28;20088;-83
2021/09/09 09:46:34;;;;;;;18.67;15.13;;;;;;;;;;5037915;28;20036;-83
2021/09/09 09:49:18;;;;;;;17.55;15.43;;;;;;;;;;5050660;28;20101;-83
2021/09/09 09:51:45;;;;;;;17.50;13.85;;;;;;;;;;5034370;28;20377;-83
2021/09/09 09:54:11;;;;;;;14.90;13.40;;;;;;;;;;5044697;28;20420;-83
2021/09/09 09:56:37;;;;;;;20.38;14.00;;;;;;;;;;5041147;28;20036;-83
2021/09/09 09:59:03;;;;;;;15.73;13.88;;;;;;;;;;5037245;28;20021;-82
2021/09/09 10:01:29;;;;;;;22.67;13.80;;;;;;;;;;5032542;28;20022;-82
2021/09/09 10:03:56;;;;;;;17.23;13.18;;;;;;;;;;5044051;28;20024;-83
2021/09/09 10:06:21;;;;;;;18.58;13.55;;;;;;;;;;5042583;28;20032;-82
2021/09/09 10:08:47;;;;;;;17.03;13.40;;;;;;;;;;5036682;28;20400;-83
2021/09/09 10:11:12;;;;;;;16.00;13.57;;;;;;;;;;5052834;28;20619;-83
2021/09/09 10:13:37;;;;;;;17.13;12.77;;;;;;;;;;5035710;28;20260;-83
2021/09/09 10:16:03;;;;;;;16.90;13.23;;;;;;;;;;5030813;28;20026;-82
2021/09/09 10:18:28;;;;;;;17.98;13.27;;;;;;;;;;5029218;28;20057;-83
2021/09/09 10:20:53;;;;;;;15.55;13.13;;;;;;;;;;5037140;28;20424;-83
2021/09/09 10:23:25;;;;;;;13.23;11.83;;;;;;;;;;5035318;28;20072;-83
2021/09/09 10:25:54;;;;;;;16.35;11.93;;;;;;;;;;5042181;28;20029;-83
2021/09/09 10:28:46;;;;;;;19.00;12.05;;;;;;;;;;5031273;28;20025;-82
2021/09/09 10:31:15;;;;;;;12.70;11.27;;;;;;;;;;5050313;28;20048;-82
2021/09/09 10:33:47;;;;;;;15.07;10.90;;;;;;;;;;5039582;28;20056;-83
2021/09/09 10:36:31;;;;;;;16.17;11.85;;;;;;;;;;5023776;28;20035;-83
2021/09/09 10:38:56;;;;;;;19.15;11.63;;;;;;;;;;5044105;28;20064;-83
2021/09/09 10:41:28;;;;;;;14.10;10.57;;;;;;;;;;5031957;28;20073;-83
2021/09/09 10:43:56;;;;;;;17.95;12.95;;;;;;;;;;5049011;28;20762;-83
2021/09/09 10:46:28;;;;;;;18.70;12.10;;;;;;;;;;5035834;28;20058;-83
2021/09/09 10:49:03;;;;;;;17.63;13.35;;;;;;;;;;5042903;28;20052;-82
2021/09/09 10:51:28;;;;;;;16.17;13.50;;;;;;;;;;5044391;28;20067;-83
2021/09/09 10:53:55;;;;;;;15.75;12.90;;;;;;;;;;5031272;28;20025;-82
2021/09/09 10:56:21;;;;;;;12.70;11.40;;;;;;;;;;5034035;28;20025;-82
2021/09/09 10:59:06;;;;;;;13.98;12.57;;;;;;;;;;5055754;28;20380;-83
2021/09/09 11:01:31;;;;;;;14.15;11.43;;;;;;;;;;5039859;28;20017;-82
2021/09/09 11:03:56;;;;;;;13.93;12.43;;;;;;;;;;5050558;28;20074;-83
2021/09/09 11:06:23;;;;;;;14.03;12.13;;;;;;;;;;5038853;28;20028;-83
2021/09/09 11:08:50;;;;;;;20.48;12.13;;;;;;;;;;5041612;28;20268;-83
2021/09/09 11:11:27;;;;;;;17.77;12.50;;;;;;;;;;5044368;28;20044;-82
2021/09/09 11:13:59;;;;;;;18.85;12.75;;;;;;;;;;5032658;28;20029;-82
2021/09/09 11:16:29;;;;;;;13.35;11.85;;;;;;;;;;5045225;28;20028;-82
2021/09/09 11:18:55;;;;;;;16.95;11.70;;;;;;;;;;5040125;28;20037;-82
2021/09/09 11:21:24;;;;;;;16.55;12.80;;;;;;;;;;5037622;28;20814;-83
2021/09/09 11:23:50;;;;;;;17.48;12.68;;;;;;;;;;5035552;28;20036;-83
2021/09/09 11:26:15;;;;;;;16.38;11.43;;;;;;;;;;5050417;28;20370;-83
2021/09/09 11:28:41;;;;;;;18.43;11.57;;;;;;;;;;5041468;28;20032;-83
2021/09/09 11:31:08;;;;;;;14.13;11.35;;;;;;;;;;5041095;28;20041;-83
2021/09/09 11:33:44;;;;;;;13.30;11.88;;;;;;;;;;5033085;28;20025;-83
2021/09/09 11:36:11;;;;;;;13.05;11.65;;;;;;;;;;5018915;28;20013;-83
2021/09/09 11:38:36;;;;;;;15.40;12.50;;;;;;;;;;5043578;28;20249;-82
2021/09/09 11:41:11;;;;;;;15.70;11.00;;;;;;;;;;5040469;28;20512;-82
2021/09/09 11:43:38;;;;;;;13.20;11.90;;;;;;;;;;5051510;28;20035;-83
2021/09/09 11:46:04;;;;;;;14.68;10.10;;;;;;;;;;5036257;28;20026;-83
2021/09/09 11:48:29;;;;;;;13.57;11.10;;;;;;;;;;5039254;28;20028;-82
2021/09/09 11:50:54;;;;;;;12.73;11.40;;;;;;;;;;5051432;28;20087;-83
2021/09/09 11:53:23;;;;;;;11.70;10.50;;;;;;;;;;5037678;28;20029;-83
2021/09/09 11:55:48;;;;;;;13.52;10.93;;;;;;;;;;5032768;28;20017;-83
2021/09/09 11:58:31;;;;;;;13.50;10.93;;;;;;;;;;5051247;28;20047;-83
2021/09/09 12:01:02;;;;;;;19.27;11.40;;;;;;;;;;5044680;28;20339;-83
2021/09/09 12:03:28;;;;;;;14.70;11.15;;;;;;;;;;5039736;28;20040;-83
2021/09/09 12:05:53;;;;;;;15.40;11.02;;;;;;;;;;5048252;28;20044;-83
2021/09/09 12:08:19;;;;;;;14.95;10.75;;;;;;;;;;5039429;28;20116;-83
2021/09/09 12:10:45;;;;;;;16.17;10.88;;;;;;;;;;5044946;28;20436;-83
2021/09/09 12:13:10;;;;;;;15.20;10.85;;;;;;;;;;5046825;28;20051;-83
2021/09/09 12:15:35;;;;;;;15.65;11.43;;;;;;;;;;5035600;28;20026;-83
2021/09/09 12:18:10;;;;;;;18.67;10.93;;;;;;;;;;5046685;28;20826;-83
2021/09/09 12:20:36;;;;;;;17.45;11.20;;;;;;;;;;5036835;28;20052;-83
2021/09/09 12:23:01;;;;;;;15.65;10.30;;;;;;;;;;5036593;28;20410;-82
2021/09/09 12:25:26;;;;;;;13.80;10.43;;;;;;;;;;5043394;28;20025;-83
2021/09/09 12:27:55;;;;;;;11.87;10.67;;;;;;;;;;5033416;28;20495;-83
2021/09/09 12:30:25;;;;;;;14.70;10.80;;;;;;;;;;5044790;28;20272;-83
2021/09/09 12:32:50;;;;;;;14.02;9.65;;;;;;;;;;5038205;28;20025;-83
2021/09/09 12:35:19;;;;;;;11.13;9.27;;;;;;;;;;5041480;28;20033;-83
2021/09/09 12:37:57;;;;;;;15.13;10.15;;;;;;;;;;5049306;28;20126;-84
2021/09/09 12:40:35;;;;;;;13.93;10.30;;;;;;;;;;5036622;28;20082;-83
2021/09/09 12:43:18;;;;;;;9.63;8.63;;;;;;;;;;5048918;28;20017;-83
2021/09/09 12:45:43;;;;;;;11.02;9.23;;;;;;;;;;5032856;28;20108;-84
2021/09/09 12:48:08;;;;;;;9.77;8.70;;;;;;;;;;5014893;28;20080;-84
2021/09/09 12:50:34;;;;;;;19.50;9.00;;;;;;;;;;5037158;28;20269;-84
2021/09/09 12:52:59;;;;;;;10.27;8.90;;;;;;;;;;5025488;28;20358;-83
2021/09/09 12:55:24;;;;;;;11.90;7.77;;;;;;;;;;5028624;28;20481;-84
2021/09/09 12:57:50;;;;;;;11.17;8.03;;;;;;;;;;5046818;28;20028;-84
2021/09/09 13:00:15;;;;;;;13.20;8.50;;;;;;;;;;5045353;28;20028;-84
2021/09/09 13:02:40;;;;;;;12.40;8.43;;;;;;;;;;5036122;28;20024;-84
2021/09/09 13:05:06;;;;;;;10.98;8.50;;;;;;;;;;5037243;28;20036;-83
2021/09/09 13:07:32;;;;;;;8.60;7.47;;;;;;;;;;5040819;28;20028;-84
2021/09/09 13:09:57;;;;;;;9.23;8.27;;;;;;;;;;5030605;28;20536;-84
2021/09/09 13:12:22;;;;;;;17.67;8.07;;;;;;;;;;5041870;28;20057;-84
2021/09/09 13:14:48;;;;;;;10.80;7.93;;;;;;;;;;5036120;28;20051;-84
2021/09/09 13:17:13;;;;;;;10.77;7.77;;;;;;;;;;5037545;28;20568;-84
2021/09/09 13:19:38;;;;;;;13.37;7.50;;;;;;;;;;5045208;28;20286;-84
2021/09/09 13:22:03;;;;;;;9.00;7.32;;;;;;;;;;5033296;28;20025;-84
2021/09/09 13:24:30;;;;;;;12.47;7.47;;;;;;;;;;5041861;28;20025;-84
2021/09/09 13:26:55;;;;;;;11.88;7.38;;;;;;;;;;5038937;28;20468;-84
2021/09/09 13:29:20;;;;;;;9.43;7.53;;;;;;;;;;5035348;28;20026;-84
2021/09/09 13:31:45;;;;;;;11.60;8.00;;;;;;;;;;5044962;28;20028;-83
2021/09/09 13:34:10;;;;;;;12.73;7.80;;;;;;;;;;5030490;28;20024;-84
2021/09/09 13:36:38;;;;;;;8.95;7.50;;;;;;;;;;5039733;28;20065;-84
2021/09/09 13:39:03;;;;;;;11.75;7.60;;;;;;;;;;5030127;28;20021;-84
2021/09/09 13:41:29;;;;;;;8.77;7.40;;;;;;;;;;5045273;28;20036;-84
2021/09/09 13:43:54;;;;;;;10.27;7.60;;;;;;;;;;5032027;28;20433;-84
2021/09/09 13:46:19;;;;;;;11.20;7.20;;;;;;;;;;5043750;28;20026;-84
2021/09/09 13:48:45;;;;;;;13.90;7.57;;;;;;;;;;5037205;28;20544;-84
2021/09/09 13:51:10;;;;;;;8.37;7.20;;;;;;;;;;5034730;28;20033;-84
2021/09/09 13:53:35;;;;;;;12.47;7.80;;;;;;;;;;5037689;28;20771;-83
2021/09/09 13:56:00;;;;;;;20.27;8.00;;;;;;;;;;5044948;28;20031;-84
2021/09/09 13:58:25;;;;;;;12.13;7.87;;;;;;;;;;5035316;28;20044;-84
2021/09/09 14:00:51;;;;;;;9.53;7.60;;;;;;;;;;5030693;28;20018;-83
2021/09/09 14:03:16;;;;;;;12.27;7.30;;;;;;;;;;5026806;28;20029;-84
2021/09/09 14:05:42;;;;;;;10.15;7.80;;;;;;;;;;5048984;28;20385;-84
2021/09/09 14:08:07;;;;;;;12.00;6.93;;;;;;;;;;5035825;28;20556;-84
2021/09/09 14:10:32;;;;;;;8.10;7.30;;;;;;;;;;5046605;28;20028;-84
2021/09/09 14:12:58;;;;;;;12.65;7.38;;;;;;;;;;5043241;28;20048;-84